MIA weather

Miami International Airport
Miami, Florida, United States

Public forecast

Using degrees Fahrenheit for public forecast. Weather courtesy of forecast.io.

METAR (pilot weather report)

Retrieved 2019/04/23 09:53 UTC (32 minutes ago):

KMIA 230953Z 03003KT 10SM FEW040 21/14 A3007 RMK AO2 SLP183 T02060139

TAF (pilot weather forecast)

Retrieved 2019/04/23 06:22 UTC (4 hours ago):

TAF KMIA 230520Z 2306/2412 06005KT P6SM FEW040 FM231500 07011KT P6SM SCT040 FM240100 06006KT P6SM FEW040